sensor_id;sensor_type;location;lat;lon;timestamp;pressure;altitude;pressure_sealevel;temperature;humidity
25869;BME280;13688;53.154;18.136;2023-04-20T00:03:22;101454.63;;;7.58;92.83
25869;BME280;13688;53.154;18.136;2023-04-20T00:08:47;101457.98;;;7.61;92.26
25869;BME280;13688;53.154;18.136;2023-04-20T00:14:11;101456.03;;;7.65;91.86
25869;BME280;13688;53.154;18.136;2023-04-20T00:19:35;101450.81;;;7.62;91.60
25869;BME280;13688;53.154;18.136;2023-04-20T00:24:59;101452.58;;;7.63;91.65
25869;BME280;13688;53.154;18.136;2023-04-20T00:30:22;101445.47;;;7.62;91.83
25869;BME280;13688;53.154;18.136;2023-04-20T00:35:45;101451.63;;;7.64;92.07
25869;BME280;13688;53.154;18.136;2023-04-20T00:41:08;101449.81;;;7.64;92.29
25869;BME280;13688;53.154;18.136;2023-04-20T00:46:31;101455.16;;;7.64;92.42
25869;BME280;13688;53.154;18.136;2023-04-20T00:51:59;101450.77;;;7.63;92.58
25869;BME280;13688;53.154;18.136;2023-04-20T00:57:19;101442.97;;;7.59;92.72
25869;BME280;13688;53.154;18.136;2023-04-20T01:02:41;101433.20;;;7.58;92.94
25869;BME280;13688;53.154;18.136;2023-04-20T01:08:05;101432.44;;;7.56;93.14
25869;BME280;13688;53.154;18.136;2023-04-20T01:13:29;101434.34;;;7.54;93.25
25869;BME280;13688;53.154;18.136;2023-04-20T01:18:55;101429.90;;;7.53;93.47
25869;BME280;13688;53.154;18.136;2023-04-20T01:24:20;101428.98;;;7.54;93.59
25869;BME280;13688;53.154;18.136;2023-04-20T01:29:44;101428.98;;;7.54;93.64
25869;BME280;13688;53.154;18.136;2023-04-20T01:35:08;101425.45;;;7.53;93.63
25869;BME280;13688;53.154;18.136;2023-04-20T01:40:31;101430.70;;;7.55;93.60
25869;BME280;13688;53.154;18.136;2023-04-20T01:45:54;101419.14;;;7.54;93.43
25869;BME280;13688;53.154;18.136;2023-04-20T01:51:18;101426.30;;;7.54;93.32
25869;BME280;13688;53.154;18.136;2023-04-20T01:56:42;101421.82;;;7.54;93.27
25869;BME280;13688;53.154;18.136;2023-04-20T02:02:06;101426.91;;;7.59;93.24
25869;BME280;13688;53.154;18.136;2023-04-20T02:07:29;101419.65;;;7.61;92.97
25869;BME280;13688;53.154;18.136;2023-04-20T02:12:53;101417.78;;;7.63;92.69
25869;BME280;13688;53.154;18.136;2023-04-20T02:18:16;101422.23;;;7.62;92.46
25869;BME280;13688;53.154;18.136;2023-04-20T02:23:41;101421.38;;;7.62;92.27
25869;BME280;13688;53.154;18.136;2023-04-20T02:29:06;101421.38;;;7.62;92.12
25869;BME280;13688;53.154;18.136;2023-04-20T02:34:30;101426.73;;;7.62;91.96
25869;BME280;13688;53.154;18.136;2023-04-20T02:39:54;101432.08;;;7.62;91.73
25869;BME280;13688;53.154;18.136;2023-04-20T02:45:18;101427.77;;;7.59;91.42
25869;BME280;13688;53.154;18.136;2023-04-20T02:50:42;101432.52;;;7.54;91.15
25869;BME280;13688;53.154;18.136;2023-04-20T02:56:07;101433.70;;;7.49;91.06
25869;BME280;13688;53.154;18.136;2023-04-20T03:01:31;101433.02;;;7.45;91.08
25869;BME280;13688;53.154;18.136;2023-04-20T03:06:56;101443.72;;;7.45;91.09
25869;BME280;13688;53.154;18.136;2023-04-20T03:12:20;101442.05;;;7.42;90.91
25869;BME280;13688;53.154;18.136;2023-04-20T03:17:43;101442.05;;;7.42;90.76
25869;BME280;13688;53.154;18.136;2023-04-20T03:23:08;101443.54;;;7.48;90.56
25869;BME280;13688;53.154;18.136;2023-04-20T03:28:33;101451.17;;;7.56;90.14
25869;BME280;13688;53.154;18.136;2023-04-20T03:33:57;101451.17;;;7.56;89.54
25869;BME280;13688;53.154;18.136;2023-04-20T03:39:22;101445.91;;;7.54;88.92
25869;BME280;13688;53.154;18.136;2023-04-20T03:44:47;101449.84;;;7.47;88.46
25869;BME280;13688;53.154;18.136;2023-04-20T03:50:12;101459.39;;;7.35;88.31
25869;BME280;13688;53.154;18.136;2023-04-20T03:55:35;101457.66;;;7.34;88.55
25869;BME280;13688;53.154;18.136;2023-04-20T04:01:06;101453.09;;;7.36;88.77
25869;BME280;13688;53.154;18.136;2023-04-20T04:06:27;101456.28;;;7.43;88.84
25869;BME280;13688;53.154;18.136;2023-04-20T04:11:52;101465.13;;;7.45;88.71
25869;BME280;13688;53.154;18.136;2023-04-20T04:17:18;101464.95;;;7.48;88.58
25869;BME280;13688;53.154;18.136;2023-04-20T04:22:42;101468.27;;;7.53;88.44
25869;BME280;13688;53.154;18.136;2023-04-20T04:28:06;101465.33;;;7.58;88.32
25869;BME280;13688;53.154;18.136;2023-04-20T04:33:31;101462.47;;;7.61;88.12
25869;BME280;13688;53.154;18.136;2023-04-20T04:38:56;101470.94;;;7.53;87.93
25869;BME280;13688;53.154;18.136;2023-04-20T04:44:21;101478.33;;;7.48;88.01
25869;BME280;13688;53.154;18.136;2023-04-20T04:49:47;101479.36;;;7.45;88.18
25869;BME280;13688;53.154;18.136;2023-04-20T04:55:11;101487.05;;;7.52;88.45
25869;BME280;13688;53.154;18.136;2023-04-20T05:00:34;101483.88;;;7.61;88.53
25869;BME280;13688;53.154;18.136;2023-04-20T05:05:58;101491.02;;;7.78;88.37
25869;BME280;13688;53.154;18.136;2023-04-20T05:11:21;101492.16;;;7.89;87.78
25869;BME280;13688;53.154;18.136;2023-04-20T05:16:46;101502.38;;;7.98;87.15
25869;BME280;13688;53.154;18.136;2023-04-20T05:22:10;101503.96;;;8.02;86.53
25869;BME280;13688;53.154;18.136;2023-04-20T05:27:33;101501.64;;;8.12;86.17
25869;BME280;13688;53.154;18.136;2023-04-20T05:32:57;101504.77;;;8.20;85.85
25869;BME280;13688;53.154;18.136;2023-04-20T05:38:21;101511.16;;;8.33;85.45
25869;BME280;13688;53.154;18.136;2023-04-20T05:43:45;101519.50;;;8.45;84.94
25869;BME280;13688;53.154;18.136;2023-04-20T05:49:08;101521.03;;;8.49;84.47
25869;BME280;13688;53.154;18.136;2023-04-20T05:54:30;101519.05;;;8.37;84.15
25869;BME280;13688;53.154;18.136;2023-04-20T05:59:52;101517.00;;;8.42;84.30
25869;BME280;13688;53.154;18.136;2023-04-20T06:05:15;101517.41;;;8.66;84.32
25869;BME280;13688;53.154;18.136;2023-04-20T06:10:38;101522.58;;;8.84;83.77
25869;BME280;13688;53.154;18.136;2023-04-20T06:16:00;101528.19;;;8.96;82.89
25869;BME280;13688;53.154;18.136;2023-04-20T06:21:22;101539.86;;;9.10;82.01
25869;BME280;13688;53.154;18.136;2023-04-20T06:26:45;101540.05;;;9.07;81.27
25869;BME280;13688;53.154;18.136;2023-04-20T06:32:07;101538.61;;;9.16;80.76
25869;BME280;13688;53.154;18.136;2023-04-20T06:37:31;101548.64;;;9.28;80.23
25869;BME280;13688;53.154;18.136;2023-04-20T06:42:55;101548.80;;;9.55;79.76
25869;BME280;13688;53.154;18.136;2023-04-20T06:48:17;101555.84;;;9.72;78.60
25869;BME280;13688;53.154;18.136;2023-04-20T06:53:42;101560.55;;;9.83;77.10
25869;BME280;13688;53.154;18.136;2023-04-20T06:59:07;101558.76;;;9.97;76.41
25869;BME280;13688;53.154;18.136;2023-04-20T07:04:32;101571.52;;;10.08;75.80
25869;BME280;13688;53.154;18.136;2023-04-20T07:09:57;101566.00;;;10.25;75.06
25869;BME280;13688;53.154;18.136;2023-04-20T07:15:23;101560.77;;;10.51;74.45
25869;BME280;13688;53.154;18.136;2023-04-20T07:20:46;101561.41;;;10.69;73.91
25869;BME280;13688;53.154;18.136;2023-04-20T07:26:11;101568.03;;;10.77;73.28
25869;BME280;13688;53.154;18.136;2023-04-20T07:31:34;101577.13;;;11.16;72.34
25869;BME280;13688;53.154;18.136;2023-04-20T07:36:57;101572.70;;;11.42;71.21
25869;BME280;13688;53.154;18.136;2023-04-20T07:42:19;101571.11;;;11.52;69.91
25869;BME280;13688;53.154;18.136;2023-04-20T07:47:43;101568.23;;;11.68;69.47
25869;BME280;13688;53.154;18.136;2023-04-20T07:53:11;101576.36;;;11.93;69.26
25869;BME280;13688;53.154;18.136;2023-04-20T07:58:36;101574.34;;;11.97;68.05
25869;BME280;13688;53.154;18.136;2023-04-20T08:04:00;101579.16;;;12.04;67.55
25869;BME280;13688;53.154;18.136;2023-04-20T08:09:26;101578.64;;;11.99;66.48
25869;BME280;13688;53.154;18.136;2023-04-20T08:14:51;101583.80;;;12.02;67.28
25869;BME280;13688;53.154;18.136;2023-04-20T08:20:15;101577.12;;;12.21;67.17
25869;BME280;13688;53.154;18.136;2023-04-20T08:25:38;101584.42;;;12.57;66.60
25869;BME280;13688;53.154;18.136;2023-04-20T08:31:00;101587.45;;;12.89;66.33
25869;BME280;13688;53.154;18.136;2023-04-20T08:36:24;101592.53;;;12.94;66.04
25869;BME280;13688;53.154;18.136;2023-04-20T08:41:48;101590.20;;;13.37;65.53
25869;BME280;13688;53.154;18.136;2023-04-20T08:47:13;101602.81;;;13.60;64.06
25869;BME280;13688;53.154;18.136;2023-04-20T08:52:37;101600.02;;;13.62;64.17
25869;BME280;13688;53.154;18.136;2023-04-20T08:58:02;101599.89;;;13.63;64.80
25869;BME280;13688;53.154;18.136;2023-04-20T09:03:39;101605.72;;;13.46;64.48
25869;BME280;13688;53.154;18.136;2023-04-20T09:09:08;101605.20;;;13.76;64.69
25869;BME280;13688;53.154;18.136;2023-04-20T09:14:27;101603.64;;;13.85;63.39
25869;BME280;13688;53.154;18.136;2023-04-20T09:19:59;101604.25;;;13.88;61.29
25869;BME280;13688;53.154;18.136;2023-04-20T09:25:23;101608.24;;;14.18;60.19
25869;BME280;13688;53.154;18.136;2023-04-20T09:30:50;101601.92;;;14.52;58.33
25869;BME280;13688;53.154;18.136;2023-04-20T09:36:13;101609.03;;;14.76;58.16
25869;BME280;13688;53.154;18.136;2023-04-20T09:41:37;101602.45;;;15.12;58.78
25869;BME280;13688;53.154;18.136;2023-04-20T09:47:01;101593.83;;;15.18;57.95
25869;BME280;13688;53.154;18.136;2023-04-20T09:52:24;101595.90;;;15.26;58.45
25869;BME280;13688;53.154;18.136;2023-04-20T09:57:49;101600.86;;;15.09;57.58
25869;BME280;13688;53.154;18.136;2023-04-20T10:03:14;101594.61;;;16.15;58.21
25869;BME280;13688;53.154;18.136;2023-04-20T10:08:40;101602.45;;;16.69;56.87
25869;BME280;13688;53.154;18.136;2023-04-20T10:14:22;101596.30;;;17.27;54.17
25869;BME280;13688;53.154;18.136;2023-04-20T10:19:46;101580.86;;;16.37;55.04
25869;BME280;13688;53.154;18.136;2023-04-20T10:25:14;101585.29;;;15.87;56.26
25869;BME280;13688;53.154;18.136;2023-04-20T10:30:48;101579.69;;;17.01;54.45
25869;BME280;13688;53.154;18.136;2023-04-20T10:36:05;101578.77;;;18.73;50.75
25869;BME280;13688;53.154;18.136;2023-04-20T10:41:27;101569.19;;;19.14;47.78
25869;BME280;13688;53.154;18.136;2023-04-20T10:46:51;101565.52;;;19.77;45.42
25869;BME280;13688;53.154;18.136;2023-04-20T10:52:14;101568.70;;;19.19;47.02
25869;BME280;13688;53.154;18.136;2023-04-20T10:57:52;101559.71;;;17.69;50.11
25869;BME280;13688;53.154;18.136;2023-04-20T11:03:16;101562.83;;;16.67;53.32
25869;BME280;13688;53.154;18.136;2023-04-20T11:08:47;101568.69;;;16.62;54.51
25869;BME280;13688;53.154;18.136;2023-04-20T11:14:10;101558.81;;;17.01;54.15
25869;BME280;13688;53.154;18.136;2023-04-20T11:19:35;101560.11;;;17.36;52.51
25869;BME280;13688;53.154;18.136;2023-04-20T11:25:06;101557.69;;;17.42;51.69
25869;BME280;13688;53.154;18.136;2023-04-20T11:30:26;101562.96;;;17.15;50.81
25869;BME280;13688;53.154;18.136;2023-04-20T11:35:56;101551.23;;;17.14;51.39
25869;BME280;13688;53.154;18.136;2023-04-20T11:41:18;101555.75;;;18.85;49.53
25869;BME280;13688;53.154;18.136;2023-04-20T11:46:41;101546.60;;;20.01;45.87
25869;BME280;13688;53.154;18.136;2023-04-20T11:52:05;101530.79;;;20.81;43.49
25869;BME280;13688;53.154;18.136;2023-04-20T11:57:28;101542.61;;;20.90;43.17
25869;BME280;13688;53.154;18.136;2023-04-20T12:02:52;101547.16;;;20.73;40.85
25869;BME280;13688;53.154;18.136;2023-04-20T12:08:15;101542.27;;;20.84;40.96
25869;BME280;13688;53.154;18.136;2023-04-20T12:13:37;101539.07;;;21.05;40.31
25869;BME280;13688;53.154;18.136;2023-04-20T12:18:59;101537.14;;;20.90;41.35
25869;BME280;13688;53.154;18.136;2023-04-20T12:24:22;101535.80;;;21.02;39.75
25869;BME280;13688;53.154;18.136;2023-04-20T12:29:45;101530.99;;;20.88;39.33
25869;BME280;13688;53.154;18.136;2023-04-20T12:35:08;101525.45;;;21.30;38.99
25869;BME280;13688;53.154;18.136;2023-04-20T12:40:32;101524.09;;;21.50;38.55
25869;BME280;13688;53.154;18.136;2023-04-20T12:45:56;101517.78;;;21.33;37.40
25869;BME280;13688;53.154;18.136;2023-04-20T12:51:19;101504.44;;;21.63;36.74
25869;BME280;13688;53.154;18.136;2023-04-20T12:56:43;101500.63;;;21.80;35.97
25869;BME280;13688;53.154;18.136;2023-04-20T13:02:07;101486.66;;;21.42;36.08
25869;BME280;13688;53.154;18.136;2023-04-20T13:07:32;101489.85;;;21.79;35.96
25869;BME280;13688;53.154;18.136;2023-04-20T13:12:57;101478.81;;;20.65;35.84
25869;BME280;13688;53.154;18.136;2023-04-20T13:18:22;101483.47;;;20.80;37.21
25869;BME280;13688;53.154;18.136;2023-04-20T13:23:46;101489.08;;;20.28;37.44
25869;BME280;13688;53.154;18.136;2023-04-20T13:29:11;101476.84;;;20.99;34.52
25869;BME280;13688;53.154;18.136;2023-04-20T13:34:35;101475.08;;;22.20;32.30
25869;BME280;13688;53.154;18.136;2023-04-20T13:40:00;101463.72;;;22.32;32.02
25869;BME280;13688;53.154;18.136;2023-04-20T13:45:25;101477.00;;;20.05;36.11
25869;BME280;13688;53.154;18.136;2023-04-20T13:50:49;101485.31;;;18.63;38.56
25869;BME280;13688;53.154;18.136;2023-04-20T13:56:14;101488.17;;;18.06;39.21
25869;BME280;13688;53.154;18.136;2023-04-20T14:01:38;101480.96;;;17.78;40.34
25869;BME280;13688;53.154;18.136;2023-04-20T14:07:03;101491.59;;;18.08;40.43
25869;BME280;13688;53.154;18.136;2023-04-20T14:12:28;101475.18;;;18.27;40.48
25869;BME280;13688;53.154;18.136;2023-04-20T14:17:53;101477.80;;;18.19;39.18
25869;BME280;13688;53.154;18.136;2023-04-20T14:23:17;101470.98;;;18.33;39.13
25869;BME280;13688;53.154;18.136;2023-04-20T14:28:41;101468.73;;;19.63;35.56
25869;BME280;13688;53.154;18.136;2023-04-20T14:34:05;101471.59;;;21.38;32.51
25869;BME280;13688;53.154;18.136;2023-04-20T14:39:28;101462.61;;;22.02;30.07
25869;BME280;13688;53.154;18.136;2023-04-20T14:44:51;101460.34;;;22.21;28.85
25869;BME280;13688;53.154;18.136;2023-04-20T14:50:13;101457.25;;;22.55;28.24
25869;BME280;13688;53.154;18.136;2023-04-20T14:55:37;101438.95;;;23.48;27.37
25869;BME280;13688;53.154;18.136;2023-04-20T15:01:00;101454.77;;;23.23;27.13
25869;BME280;13688;53.154;18.136;2023-04-20T15:06:23;101455.32;;;20.96;30.21
25869;BME280;13688;53.154;18.136;2023-04-20T15:11:46;101453.06;;;19.47;32.66
25869;BME280;13688;53.154;18.136;2023-04-20T15:17:13;101458.42;;;18.50;34.82
25869;BME280;13688;53.154;18.136;2023-04-20T15:22:45;101455.47;;;18.16;35.23
25869;BME280;13688;53.154;18.136;2023-04-20T15:28:08;101457.78;;;19.19;33.75
25869;BME280;13688;53.154;18.136;2023-04-20T15:33:31;101454.81;;;21.09;29.95
25869;BME280;13688;53.154;18.136;2023-04-20T15:38:56;101460.66;;;21.55;28.45
25869;BME280;13688;53.154;18.136;2023-04-20T15:44:18;101454.81;;;20.42;30.14
25869;BME280;13688;53.154;18.136;2023-04-20T15:49:44;101451.17;;;20.84;30.40
25869;BME280;13688;53.154;18.136;2023-04-20T15:55:17;101449.67;;;21.22;30.46
25869;BME280;13688;53.154;18.136;2023-04-20T16:00:41;101449.17;;;21.59;30.32
25869;BME280;13688;53.154;18.136;2023-04-20T16:06:04;101442.64;;;21.77;29.90
25869;BME280;13688;53.154;18.136;2023-04-20T16:11:29;101443.50;;;21.69;29.64
25869;BME280;13688;53.154;18.136;2023-04-20T16:16:51;101439.73;;;21.70;27.00
25869;BME280;13688;53.154;18.136;2023-04-20T16:22:17;101445.09;;;21.31;27.80
25869;BME280;13688;53.154;18.136;2023-04-20T16:27:40;101448.68;;;21.39;28.33
25869;BME280;13688;53.154;18.136;2023-04-20T16:33:03;101440.64;;;21.13;29.00
25869;BME280;13688;53.154;18.136;2023-04-20T16:38:30;101451.58;;;21.13;29.75
25869;BME280;13688;53.154;18.136;2023-04-20T16:43:50;101448.30;;;21.02;30.81
25869;BME280;13688;53.154;18.136;2023-04-20T16:49:13;101454.91;;;20.58;31.45
25869;BME280;13688;53.154;18.136;2023-04-20T16:54:35;101450.95;;;19.85;35.50
25869;BME280;13688;53.154;18.136;2023-04-20T16:59:59;101454.45;;;19.07;39.35
25869;BME280;13688;53.154;18.136;2023-04-20T17:05:23;101453.38;;;18.82;40.42
25869;BME280;13688;53.154;18.136;2023-04-20T17:10:47;101461.14;;;18.22;41.77
25869;BME280;13688;53.154;18.136;2023-04-20T17:16:10;101471.58;;;17.99;42.63
25869;BME280;13688;53.154;18.136;2023-04-20T17:21:34;101464.91;;;17.65;43.92
25869;BME280;13688;53.154;18.136;2023-04-20T17:26:56;101467.57;;;16.79;45.59
25869;BME280;13688;53.154;18.136;2023-04-20T17:32:19;101465.13;;;16.26;47.49
25869;BME280;13688;53.154;18.136;2023-04-20T17:37:42;101473.05;;;15.78;49.04
25869;BME280;13688;53.154;18.136;2023-04-20T17:43:05;101476.14;;;15.32;50.89
25869;BME280;13688;53.154;18.136;2023-04-20T17:48:27;101476.05;;;15.01;52.04
25869;BME280;13688;53.154;18.136;2023-04-20T17:53:49;101483.44;;;14.67;53.14
25869;BME280;13688;53.154;18.136;2023-04-20T17:59:12;101482.97;;;14.40;53.80
25869;BME280;13688;53.154;18.136;2023-04-20T18:04:35;101485.19;;;14.23;54.42
25869;BME280;13688;53.154;18.136;2023-04-20T18:09:59;101482.84;;;14.08;54.72
25869;BME280;13688;53.154;18.136;2023-04-20T18:15:25;101490.70;;;13.88;55.16
25869;BME280;13688;53.154;18.136;2023-04-20T18:20:47;101496.70;;;13.69;55.79
25869;BME280;13688;53.154;18.136;2023-04-20T18:26:10;101502.23;;;13.68;55.93
25869;BME280;13688;53.154;18.136;2023-04-20T18:31:33;101501.75;;;13.63;56.26
25869;BME280;13688;53.154;18.136;2023-04-20T18:37:00;101514.99;;;13.55;56.45
25869;BME280;13688;53.154;18.136;2023-04-20T18:42:23;101519.02;;;13.49;56.53
25869;BME280;13688;53.154;18.136;2023-04-20T18:47:47;101515.55;;;13.36;56.88
25869;BME280;13688;53.154;18.136;2023-04-20T18:53:10;101515.20;;;13.16;57.21
25869;BME280;13688;53.154;18.136;2023-04-20T18:58:33;101513.64;;;13.01;57.75
25869;BME280;13688;53.154;18.136;2023-04-20T19:03:56;101524.16;;;12.93;58.11
25869;BME280;13688;53.154;18.136;2023-04-20T19:09:20;101520.66;;;12.80;58.36
25869;BME280;13688;53.154;18.136;2023-04-20T19:14:42;101526.31;;;12.64;58.75
25869;BME280;13688;53.154;18.136;2023-04-20T19:20:06;101521.75;;;12.41;59.56
25869;BME280;13688;53.154;18.136;2023-04-20T19:25:29;101528.36;;;12.24;59.97
25869;BME280;13688;53.154;18.136;2023-04-20T19:30:51;101517.59;;;12.11;60.41
25869;BME280;13688;53.154;18.136;2023-04-20T19:36:16;101527.96;;;11.92;60.97
25869;BME280;13688;53.154;18.136;2023-04-20T19:41:38;101524.91;;;11.71;61.69
25869;BME280;13688;53.154;18.136;2023-04-20T19:47:02;101534.72;;;11.59;62.30
25869;BME280;13688;53.154;18.136;2023-04-20T19:52:24;101533.62;;;11.49;62.63
25869;BME280;13688;53.154;18.136;2023-04-20T19:57:47;101541.14;;;11.44;62.83
25869;BME280;13688;53.154;18.136;2023-04-20T20:03:10;101536.78;;;11.29;63.19
25869;BME280;13688;53.154;18.136;2023-04-20T20:08:33;101548.38;;;11.16;63.59
25869;BME280;13688;53.154;18.136;2023-04-20T20:13:57;101547.38;;;11.05;63.87
25869;BME280;13688;53.154;18.136;2023-04-20T20:19:19;101543.69;;;10.93;64.23
25869;BME280;13688;53.154;18.136;2023-04-20T20:24:42;101547.73;;;10.86;64.27
25869;BME280;13688;53.154;18.136;2023-04-20T20:30:04;101543.06;;;10.75;64.43
25869;BME280;13688;53.154;18.136;2023-04-20T20:35:28;101549.04;;;10.66;64.60
25869;BME280;13688;53.154;18.136;2023-04-20T20:40:51;101538.87;;;10.57;64.61
25869;BME280;13688;53.154;18.136;2023-04-20T20:46:15;101549.47;;;10.46;64.72
25869;BME280;13688;53.154;18.136;2023-04-20T20:51:40;101557.36;;;10.35;65.12
25869;BME280;13688;53.154;18.136;2023-04-20T20:57:02;101555.80;;;10.30;64.90
25869;BME280;13688;53.154;18.136;2023-04-20T21:02:25;101560.96;;;10.19;64.97
25869;BME280;13688;53.154;18.136;2023-04-20T21:07:48;101554.92;;;10.16;64.98
25869;BME280;13688;53.154;18.136;2023-04-20T21:13:10;101559.61;;;10.12;64.77
25869;BME280;13688;53.154;18.136;2023-04-20T21:18:33;101556.27;;;10.09;64.68
25869;BME280;13688;53.154;18.136;2023-04-20T21:23:55;101551.56;;;9.98;64.69
25869;BME280;13688;53.154;18.136;2023-04-20T21:29:18;101550.00;;;9.94;64.65
25869;BME280;13688;53.154;18.136;2023-04-20T21:34:40;101570.17;;;9.87;64.71
25869;BME280;13688;53.154;18.136;2023-04-20T21:40:03;101563.33;;;9.81;64.76
25869;BME280;13688;53.154;18.136;2023-04-20T21:45:25;101562.07;;;9.72;64.86
25869;BME280;13688;53.154;18.136;2023-04-20T21:50:47;101567.99;;;9.63;64.95
25869;BME280;13688;53.154;18.136;2023-04-20T21:56:11;101555.06;;;9.56;65.09
25869;BME280;13688;53.154;18.136;2023-04-20T22:01:33;101564.59;;;9.45;65.32
25869;BME280;13688;53.154;18.136;2023-04-20T22:06:56;101560.72;;;9.35;65.78
25869;BME280;13688;53.154;18.136;2023-04-20T22:12:19;101559.54;;;9.25;65.94
25869;BME280;13688;53.154;18.136;2023-04-20T22:17:52;101555.13;;;9.24;65.87
25869;BME280;13688;53.154;18.136;2023-04-20T22:23:14;101559.59;;;9.09;66.57
25869;BME280;13688;53.154;18.136;2023-04-20T22:28:36;101567.80;;;9.06;66.52
25869;BME280;13688;53.154;18.136;2023-04-20T22:33:59;101561.76;;;9.03;66.44
25869;BME280;13688;53.154;18.136;2023-04-20T22:39:21;101565.92;;;8.93;66.56
25869;BME280;13688;53.154;18.136;2023-04-20T22:44:43;101562.81;;;8.84;66.73
25869;BME280;13688;53.154;18.136;2023-04-20T22:50:06;101563.33;;;8.75;66.79
25869;BME280;13688;53.154;18.136;2023-04-20T22:55:29;101566.27;;;8.55;67.22
25869;BME280;13688;53.154;18.136;2023-04-20T23:00:52;101568.27;;;8.51;67.61
25869;BME280;13688;53.154;18.136;2023-04-20T23:06:14;101576.73;;;8.44;67.65
25869;BME280;13688;53.154;18.136;2023-04-20T23:11:38;101582.73;;;8.31;67.95
25869;BME280;13688;53.154;18.136;2023-04-20T23:17:02;101576.55;;;8.14;68.31
25869;BME280;13688;53.154;18.136;2023-04-20T23:22:25;101574.97;;;8.10;68.64
25869;BME280;13688;53.154;18.136;2023-04-20T23:27:48;101576.41;;;7.99;68.79
25869;BME280;13688;53.154;18.136;2023-04-20T23:33:10;101578.80;;;7.88;69.05
25869;BME280;13688;53.154;18.136;2023-04-20T23:38:32;101571.59;;;7.73;69.44
25869;BME280;13688;53.154;18.136;2023-04-20T23:43:55;101572.07;;;7.64;69.84
25869;BME280;13688;53.154;18.136;2023-04-20T23:49:17;101561.50;;;7.61;70.01
25869;BME280;13688;53.154;18.136;2023-04-20T23:54:40;101566.55;;;7.50;70.18
